Terminal Aerodrome Forecast
Issued by NWS Pendleton, OR

Home | Current Version | Previous Version | Text Only | Print | Product List | Glossary On
Versions: 1 2 3 4 5 6 7 8 9 10 11 12
351
FTUS46 KPDT 250520
TAFPDT
TAF
KPDT 250520Z 2506/2606 12005KT P6SM SKC
     FM251900 33008G15KT P6SM SKC
     FM260200 02008KT P6SM SKC=

USA.gov is the U.S. government's official web portal to all federal, state and local government web resources and services.